Roza A — TCRB7 — position and weather

sailwx.info

Track history (hours):
 
Tides and Currents Weather Stations Pressure Air Temp Water Temp Dewpoint Dewpoint Depression Visibility Wind Speed Wind Dir Waves Ship Positions

Roza A

Last reported at 2016-Feb-04 13:28 UTC. Time now 2016-Feb-10 20:02 UTC.
Position N 39°43' E 025°06'.

Length 169 m; draft 8.6 m.

Type: Ship (hazmat cat A). MMSI: 271001057.

Date/timePositionNaut miles runAvg speedWind from/ knotsBaromVisibWave heightAir tempDewpointWater temp
2016-Feb-04 13:28N 39°43' E 025°06'1010.7
2016-Feb-04 12:33N 39°44' E 024°54'1610.8
2016-Feb-04 11:04N 39°46' E 024°33'610.5
2016-Feb-04 10:30N 39°47' E 024°25'1010.5
2016-Feb-04 09:33N 39°48' E 024°12'1110.5
2016-Feb-04 08:33N 39°49' E 023°59'1210.4
2016-Feb-04 07:24N 39°50' E 023°43'2910.1
2016-Feb-04 04:33N 40°01' E 023°09'86 2.8
2016-Feb-02 21:33N 38°48' E 024°07'3215.8
2016-Feb-02 19:33N 38°23' E 024°33'3514.1
2016-Feb-02 17:05N 37°49' E 024°26'916.2
2016-Feb-02 16:32N 37°43' E 024°17'1615.4
2016-Feb-02 15:31N 37°36' E 023°60'1413.7
2016-Feb-02 14:29N 37°40' E 023°43'1414.8
2016-Feb-02 13:33N 37°53' E 023°37'4 4.1
2016-Feb-02 12:30N 37°57' E 023°36'0 0.0
2016-Feb-02 11:30N 37°57' E 023°36'0 0.0
2016-Feb-02 10:33N 37°57' E 023°36'0 0.0
2016-Feb-02 09:30N 37°57' E 023°36'0 0.0
2016-Feb-02 08:27N 37°57' E 023°36'0 0.0
2016-Feb-02 07:33N 37°57' E 023°36'0 0.0
2016-Feb-02 06:27N 37°57' E 023°36'2 2.1
2016-Feb-02 05:33N 37°55' E 023°36'1 1.4
2016-Feb-02 04:31N 37°54' E 023°35'2 2.5
2016-Feb-02 03:32N 37°53' E 023°32'0 0.0
2016-Feb-02 02:32N 37°53' E 023°33'0 0.0
2016-Feb-02 01:32N 37°53' E 023°33'0 0.1
2016-Feb-02 00:32N 37°53' E 023°33'0 0.1
2016-Feb-01 23:32N 37°53' E 023°33'0 0.1
2016-Feb-01 22:29N 37°53' E 023°33'0 0.0
2016-Feb-01 21:32N 37°53' E 023°33'0 0.0
2016-Feb-01 20:29N 37°53' E 023°33'0 0.0
2016-Feb-01 19:33N 37°53' E 023°32'3 3.3
2016-Feb-01 18:33N 37°51' E 023°36'9 9.4
2016-Feb-01 17:33N 37°44' E 023°43'1110.6
2016-Feb-01 16:32N 37°33' E 023°46'1211.8
2016-Feb-01 15:33N 37°23' E 023°40'1311.9
2016-Feb-01 14:29N 37°11' E 023°33'1111.2
2016-Feb-01 13:32N 37°02' E 023°26'1111.0
2016-Feb-01 12:31N 36°52' E 023°21'35111.7
2016-Jan-31 06:33N 37°45' E 016°05'1615.0
2016-Jan-31 05:29N 37°50' E 015°46'1614.2
2016-Jan-31 04:20N 38°03' E 015°33'1215.5
2016-Jan-31 03:33N 38°14' E 015°37'1211.6
2016-Jan-31 02:33N 38°25' E 015°32'1313.4
2016-Jan-31 01:33N 38°35' E 015°20'9215.3
2016-Jan-30 19:33N 39°25' E 013°41'43715.1
2016-Jan-29 14:33N 43°01' E 005°17'1515.1
2016-Jan-29 13:33N 43°11' E 005°01'1312.6
2016-Jan-29 12:33N 43°23' E 004°56'4 3.7
2016-Jan-29 11:27N 43°25' E 004°51'0 0.0
2016-Jan-29 10:33N 43°25' E 004°51'0 0.0
2016-Jan-29 09:33N 43°25' E 004°51'0 0.0
2016-Jan-29 08:30N 43°25' E 004°51'0 0.0
2016-Jan-29 07:33N 43°25' E 004°51'0 0.0
2016-Jan-29 06:33N 43°25' E 004°51'0 0.0
2016-Jan-29 05:33N 43°25' E 004°51'0 0.0
2016-Jan-29 04:33N 43°25' E 004°51'0 0.0
2016-Jan-29 03:33N 43°25' E 004°51'0 0.0
2016-Jan-29 02:33N 43°25' E 004°51'0 0.0
2016-Jan-29 01:33N 43°25' E 004°51'0 0.2
2016-Jan-29 00:33N 43°24' E 004°51'6 6.4
2016-Jan-28 23:34N 43°21' E 004°58'9 9.3
2016-Jan-28 22:33N 43°12' E 005°03'5 4.6
2016-Jan-28 21:33N 43°08' E 005°04'2 1.9
2016-Jan-28 20:33N 43°09' E 005°03'1 1.0
2016-Jan-28 19:33N 43°08' E 005°02'1 0.6
2016-Jan-28 18:32N 43°08' E 005°03'2 1.7
2016-Jan-28 17:33N 43°09' E 005°01'2 1.9
2016-Jan-28 16:33N 43°07' E 005°01'1010.4
2016-Jan-28 15:33N 43°01' E 004°50'1010.5
2016-Jan-28 14:33N 42°53' E 004°40'1010.4
2016-Jan-28 13:33N 42°45' E 004°31'1110.7
2016-Jan-28 12:33N 42°37' E 004°22'12610.4
2016-Jan-28 00:28N 41°17' E 002°11'5 0.5
2016-Jan-27 14:31N 41°21' E 002°10'6 6.6
2016-Jan-27 13:34N 41°15' E 002°12'4 3.8
2016-Jan-27 12:33N 41°12' E 002°16'1 0.7
2016-Jan-27 11:33N 41°12' E 002°15'1 0.5
2016-Jan-27 10:33N 41°13' E 002°14'45 8.8
2016-Jan-27 05:26N 40°41' E 001°33'910.1
2016-Jan-27 04:34N 40°35' E 001°24'1010.2
2016-Jan-27 03:33N 40°29' E 001°13'1110.5
2016-Jan-27 02:33N 40°23' E 001°01'1110.7
2016-Jan-27 01:33N 40°17' E 000°50'62 1.7
2016-Jan-25 13:33N 39°33' W 000°07'  
Track history (hours):
 
Tides and Currents Weather Stations Pressure Air Temp Water Temp Dewpoint Dewpoint Depression Visibility Wind Speed Wind Dir Waves Ship Positions

Roza A

Last reported at 2016-Feb-04 13:28 UTC. Time now 2016-Feb-10 20:02 UTC.
Position N 39°43' E 025°06'.

Length 169 m; draft 8.6 m.

Type: Ship (hazmat cat A). MMSI: 271001057.

Date/timePositionNaut miles runAvg speedWind from/ knotsBaromVisibWave heightAir tempDewpointWater temp
2016-Feb-04 13:28N 39°43' E 025°06'1010.7
2016-Feb-04 12:33N 39°44' E 024°54'1610.8
2016-Feb-04 11:04N 39°46' E 024°33'610.5
2016-Feb-04 10:30N 39°47' E 024°25'1010.5
2016-Feb-04 09:33N 39°48' E 024°12'1110.5
2016-Feb-04 08:33N 39°49' E 023°59'1210.4
2016-Feb-04 07:24N 39°50' E 023°43'2910.1
2016-Feb-04 04:33N 40°01' E 023°09'86 2.8
2016-Feb-02 21:33N 38°48' E 024°07'3215.8
2016-Feb-02 19:33N 38°23' E 024°33'3514.1
2016-Feb-02 17:05N 37°49' E 024°26'916.2
2016-Feb-02 16:32N 37°43' E 024°17'1615.4
2016-Feb-02 15:31N 37°36' E 023°60'1413.7
2016-Feb-02 14:29N 37°40' E 023°43'1414.8
2016-Feb-02 13:33N 37°53' E 023°37'4 4.1
2016-Feb-02 12:30N 37°57' E 023°36'0 0.0
2016-Feb-02 11:30N 37°57' E 023°36'0 0.0
2016-Feb-02 10:33N 37°57' E 023°36'0 0.0
2016-Feb-02 09:30N 37°57' E 023°36'0 0.0
2016-Feb-02 08:27N 37°57' E 023°36'0 0.0
2016-Feb-02 07:33N 37°57' E 023°36'0 0.0
2016-Feb-02 06:27N 37°57' E 023°36'2 2.1
2016-Feb-02 05:33N 37°55' E 023°36'1 1.4
2016-Feb-02 04:31N 37°54' E 023°35'2 2.5
2016-Feb-02 03:32N 37°53' E 023°32'0 0.0
2016-Feb-02 02:32N 37°53' E 023°33'0 0.0
2016-Feb-02 01:32N 37°53' E 023°33'0 0.1
2016-Feb-02 00:32N 37°53' E 023°33'0 0.1
2016-Feb-01 23:32N 37°53' E 023°33'0 0.1
2016-Feb-01 22:29N 37°53' E 023°33'0 0.0
2016-Feb-01 21:32N 37°53' E 023°33'0 0.0
2016-Feb-01 20:29N 37°53' E 023°33'0 0.0
2016-Feb-01 19:33N 37°53' E 023°32'3 3.3
2016-Feb-01 18:33N 37°51' E 023°36'9 9.4
2016-Feb-01 17:33N 37°44' E 023°43'1110.6
2016-Feb-01 16:32N 37°33' E 023°46'1211.8
2016-Feb-01 15:33N 37°23' E 023°40'1311.9
2016-Feb-01 14:29N 37°11' E 023°33'1111.2
2016-Feb-01 13:32N 37°02' E 023°26'1111.0
2016-Feb-01 12:31N 36°52' E 023°21'35111.7
2016-Jan-31 06:33N 37°45' E 016°05'1615.0
2016-Jan-31 05:29N 37°50' E 015°46'1614.2
2016-Jan-31 04:20N 38°03' E 015°33'1215.5
2016-Jan-31 03:33N 38°14' E 015°37'1211.6
2016-Jan-31 02:33N 38°25' E 015°32'1313.4
2016-Jan-31 01:33N 38°35' E 015°20'9215.3
2016-Jan-30 19:33N 39°25' E 013°41'43715.1
2016-Jan-29 14:33N 43°01' E 005°17'1515.1
2016-Jan-29 13:33N 43°11' E 005°01'1312.6
2016-Jan-29 12:33N 43°23' E 004°56'4 3.7
2016-Jan-29 11:27N 43°25' E 004°51'0 0.0
2016-Jan-29 10:33N 43°25' E 004°51'0 0.0
2016-Jan-29 09:33N 43°25' E 004°51'0 0.0
2016-Jan-29 08:30N 43°25' E 004°51'0 0.0
2016-Jan-29 07:33N 43°25' E 004°51'0 0.0
2016-Jan-29 06:33N 43°25' E 004°51'0 0.0
2016-Jan-29 05:33N 43°25' E 004°51'0 0.0
2016-Jan-29 04:33N 43°25' E 004°51'0 0.0
2016-Jan-29 03:33N 43°25' E 004°51'0 0.0
2016-Jan-29 02:33N 43°25' E 004°51'0 0.0
2016-Jan-29 01:33N 43°25' E 004°51'0 0.2
2016-Jan-29 00:33N 43°24' E 004°51'6 6.4
2016-Jan-28 23:34N 43°21' E 004°58'9 9.3
2016-Jan-28 22:33N 43°12' E 005°03'5 4.6
2016-Jan-28 21:33N 43°08' E 005°04'2 1.9
2016-Jan-28 20:33N 43°09' E 005°03'1 1.0
2016-Jan-28 19:33N 43°08' E 005°02'1 0.6
2016-Jan-28 18:32N 43°08' E 005°03'2 1.7
2016-Jan-28 17:33N 43°09' E 005°01'2 1.9
2016-Jan-28 16:33N 43°07' E 005°01'1010.4
2016-Jan-28 15:33N 43°01' E 004°50'1010.5
2016-Jan-28 14:33N 42°53' E 004°40'1010.4
2016-Jan-28 13:33N 42°45' E 004°31'1110.7
2016-Jan-28 12:33N 42°37' E 004°22'12610.4
2016-Jan-28 00:28N 41°17' E 002°11'5 0.5
2016-Jan-27 14:31N 41°21' E 002°10'6 6.6
2016-Jan-27 13:34N 41°15' E 002°12'4 3.8
2016-Jan-27 12:33N 41°12' E 002°16'1 0.7
2016-Jan-27 11:33N 41°12' E 002°15'1 0.5
2016-Jan-27 10:33N 41°13' E 002°14'45 8.8
2016-Jan-27 05:26N 40°41' E 001°33'910.1
2016-Jan-27 04:34N 40°35' E 001°24'1010.2
2016-Jan-27 03:33N 40°29' E 001°13'1110.5
2016-Jan-27 02:33N 40°23' E 001°01'1110.7
2016-Jan-27 01:33N 40°17' E 000°50'62 1.7
2016-Jan-25 13:33N 39°33' W 000°07'  

Dump ship's entire track history